Airfield :
LOGIN :

Register | Disclaimer

   EN    FR    IT 

 










Legend :    VFR   Marginal VFR   IFR   Intensive IFR   Very Intensive IFR
Visi :
Ceiling :
>= 8 km
>= 3000ft
5 to 8 km
1000 to 3000 ft
1500m to 5 km
500 to 1000 ft
800 to 1500m
200 to 500 ft
< 800m
< 200 ft
Symbols :   Thunderstorms  Fog  Heavy snow  Heavy precipitations  Wind > 20 kt
SIGMETs :     Misc.  Thunderstorms  Icing  Turbulence  Mountain Waves  Volcanic Ashes







- Airport Elevation : 121 ft
- IATA code : HUY
- Download approach charts


EGNJ - Humberside

CURRENT METAR :
  • 160850Z 27007KT CAVOK 00/M02 Q1015

EXPIRED METARs :
  • 160820Z 26006KT CAVOK M00/M02 Q1014
  • 160750Z 27008KT CAVOK 00/M02 Q1014
  • 160720Z 27009KT CAVOK 01/M02 Q1014
  • 160650Z 27008KT CAVOK 00/M02 Q1014
  • 160620Z 28011KT CAVOK 01/M01 Q1013
  • 160550Z 28011KT CAVOK 01/M01 Q1013

TAF TAF EGNJ
Valid from the 16 at 09:00 until the 16 at 18:00 UTC


160759Z 1609/1618 29008KT 9999 FEW035
PROB40 1615/1618 6000
ATIS : +44 1652 682 020
No reported NOTAMs for that airfield.



MET'MAP, your aeronautical weather chart ! - Copyright ORBIFLY December 2007 - Disclaimer

ORBIFLY MET'MAP TEAM :

Programming & Development : Alexandra Zaïnal
Concept & Development : Baudouin d'Aumeries
Co-Development & Prog : Marc-Olivier Méhu
Technical & hardware support : Manuel Goepfert

Contact : metmap@orbifly.com




SOURCES & CREDITS :

   NOAA